createdAt,value
2018-09-14T00:00:30.532Z,14.70
2018-09-14T00:01:30.508Z,14.71
2018-09-14T00:02:30.802Z,14.69
2018-09-14T00:03:31.242Z,14.66
2018-09-14T00:04:30.444Z,14.66
2018-09-14T00:05:31.243Z,14.71
2018-09-14T00:06:30.366Z,14.64
2018-09-14T00:07:30.398Z,14.67
2018-09-14T00:08:31.242Z,14.71
2018-09-14T00:09:30.295Z,14.70
2018-09-14T00:10:31.245Z,14.67
2018-09-14T00:11:30.233Z,14.74
2018-09-14T00:12:30.252Z,14.67
2018-09-14T00:13:30.293Z,14.70
2018-09-14T00:14:30.155Z,14.69
2018-09-14T00:15:30.127Z,14.67
2018-09-14T00:16:30.108Z,14.61
2018-09-14T00:17:30.090Z,14.67
2018-09-14T00:18:30.123Z,14.66
2018-09-14T00:19:30.745Z,14.64
2018-09-14T00:20:30.744Z,14.57
2018-09-14T00:21:29.967Z,14.60
2018-09-14T00:22:30.301Z,14.67
2018-09-14T00:23:29.957Z,14.69
2018-09-14T00:24:30.752Z,14.70
2018-09-14T00:25:30.744Z,14.69
2018-09-14T00:26:30.743Z,14.63
2018-09-14T00:27:29.815Z,14.67
2018-09-14T00:28:29.827Z,14.69
2018-09-14T00:29:29.803Z,14.70
2018-09-14T00:30:29.726Z,14.67
2018-09-14T00:31:29.695Z,14.66
2018-09-14T00:32:30.245Z,14.69
2018-09-14T00:33:29.655Z,14.69
2018-09-14T00:34:29.661Z,14.77
2018-09-14T00:35:29.592Z,14.75
2018-09-14T00:36:29.563Z,14.71
2018-09-14T00:37:29.535Z,14.80
2018-09-14T00:38:29.562Z,14.67
2018-09-14T00:39:29.809Z,14.74
2018-09-14T00:40:30.249Z,14.70
2018-09-14T00:41:30.249Z,14.77
2018-09-14T00:42:29.404Z,14.74
2018-09-14T00:43:29.375Z,14.75
2018-09-14T00:44:30.304Z,14.79
2018-09-14T00:45:29.374Z,14.75
2018-09-14T00:46:29.302Z,14.69
2018-09-14T00:47:30.249Z,14.79
2018-09-14T00:48:29.245Z,14.71
2018-09-14T00:49:29.309Z,14.70
2018-09-14T00:50:29.746Z,14.83
2018-09-14T00:51:29.163Z,14.85
2018-09-14T00:52:29.747Z,14.77
2018-09-14T00:53:29.114Z,14.75
2018-09-14T00:54:29.129Z,14.79
2018-09-14T00:55:29.315Z,14.75
2018-09-14T00:56:29.769Z,14.83
2018-09-14T00:57:29.007Z,14.85
2018-09-14T00:58:29.749Z,14.89
2018-09-14T00:59:29.748Z,14.80
2018-09-14T01:00:29.295Z,14.75
2018-09-14T01:01:28.942Z,14.85
2018-09-14T01:02:28.875Z,14.86
2018-09-14T01:03:28.847Z,14.74
2018-09-14T01:04:28.868Z,14.74
2018-09-14T01:05:29.763Z,14.82
2018-09-14T01:06:29.320Z,14.77
2018-09-14T01:07:28.747Z,14.70
2018-09-14T01:08:28.716Z,14.74
2018-09-14T01:09:28.691Z,14.70
2018-09-14T01:10:29.251Z,14.86
2018-09-14T01:11:28.681Z,14.80
2018-09-14T01:12:28.730Z,14.83
2018-09-14T01:13:29.252Z,14.85
2018-09-14T01:14:28.596Z,14.86
2018-09-14T01:15:28.805Z,14.85
2018-09-14T01:16:28.505Z,14.86
2018-09-14T01:17:29.250Z,14.87
2018-09-14T01:18:28.816Z,14.90
2018-09-14T01:19:28.424Z,14.85
2018-09-14T01:20:28.401Z,14.85
2018-09-14T01:21:29.254Z,14.83
2018-09-14T01:22:28.347Z,14.85
2018-09-14T01:23:28.810Z,14.83
2018-09-14T01:24:28.297Z,14.90
2018-09-14T01:25:29.255Z,14.82
2018-09-14T01:26:28.243Z,14.87
2018-09-14T01:27:29.160Z,14.89
2018-09-14T01:28:28.187Z,14.83
2018-09-14T01:29:28.163Z,14.94
2018-09-14T01:30:28.754Z,14.97
2018-09-14T01:31:28.320Z,14.87
2018-09-14T01:32:28.757Z,14.90
2018-09-14T01:33:28.058Z,14.90
2018-09-14T01:34:28.088Z,14.87
2018-09-14T01:35:28.755Z,14.95
2018-09-14T01:36:28.753Z,14.86
2018-09-14T01:37:28.757Z,14.90
2018-09-14T01:38:28.756Z,14.90
2018-09-14T01:39:28.322Z,14.89
2018-09-14T01:40:28.755Z,14.93
2018-09-14T01:41:28.760Z,14.90
2018-09-14T01:42:27.825Z,14.89
2018-09-14T01:43:28.755Z,14.93
2018-09-14T01:44:28.310Z,14.90
2018-09-14T01:45:27.745Z,14.85
2018-09-14T01:46:27.715Z,14.82
2018-09-14T01:47:27.823Z,14.85
2018-09-14T01:48:27.674Z,14.87
2018-09-14T01:49:28.255Z,14.89
2018-09-14T01:50:27.616Z,14.86
2018-09-14T01:51:27.586Z,14.93
2018-09-14T01:52:27.811Z,14.87
2018-09-14T01:53:27.535Z,14.89
2018-09-14T01:54:27.506Z,14.97
2018-09-14T01:55:27.815Z,14.98
2018-09-14T01:56:27.461Z,14.90
2018-09-14T01:57:28.260Z,14.94
2018-09-14T01:58:27.440Z,14.94
2018-09-14T01:59:27.374Z,14.94
2018-09-14T02:00:27.822Z,14.94
2018-09-14T02:01:27.325Z,14.93
2018-09-14T02:02:28.260Z,14.94
2018-09-14T02:03:28.280Z,14.95
2018-09-14T02:04:27.765Z,14.98
2018-09-14T02:05:27.261Z,14.90
2018-09-14T02:06:27.760Z,14.87
2018-09-14T02:07:27.771Z,14.98
2018-09-14T02:08:27.761Z,14.83
2018-09-14T02:09:27.196Z,14.87
2018-09-14T02:10:27.761Z,14.94
2018-09-14T02:11:27.317Z,15.04
2018-09-14T02:12:27.033Z,14.95
2018-09-14T02:13:27.760Z,14.98
2018-09-14T02:14:27.421Z,14.85
2018-09-14T02:15:26.961Z,14.89
2018-09-14T02:16:26.932Z,14.93
2018-09-14T02:17:26.903Z,14.83
2018-09-14T02:18:27.766Z,14.89
2018-09-14T02:19:26.898Z,14.86
2018-09-14T02:20:27.763Z,14.90
2018-09-14T02:21:26.851Z,14.82
2018-09-14T02:22:26.769Z,14.77
2018-09-14T02:23:26.746Z,14.82
2018-09-14T02:24:27.265Z,14.80
2018-09-14T02:25:26.846Z,14.75
2018-09-14T02:26:26.720Z,14.67
2018-09-14T02:27:26.816Z,14.69
2018-09-14T02:28:26.653Z,14.64
2018-09-14T02:29:27.266Z,14.60
2018-09-14T02:30:26.834Z,14.59
2018-09-14T02:31:27.266Z,14.61
2018-09-14T02:32:26.507Z,14.63
2018-09-14T02:33:26.476Z,14.57
2018-09-14T02:34:26.462Z,14.61
2018-09-14T02:35:26.818Z,14.66
2018-09-14T02:36:26.439Z,14.60
2018-09-14T02:37:26.513Z,14.69
2018-09-14T02:38:27.292Z,14.69
2018-09-14T02:39:27.269Z,14.66
2018-09-14T02:40:26.294Z,14.66
2018-09-14T02:41:26.328Z,14.66
2018-09-14T02:42:26.328Z,14.70
2018-09-14T02:43:26.223Z,14.70
2018-09-14T02:44:26.198Z,14.61
2018-09-14T02:45:26.186Z,14.69
2018-09-14T02:46:26.136Z,14.74
2018-09-14T02:47:26.873Z,14.61
2018-09-14T02:48:26.089Z,14.64
2018-09-14T02:49:26.777Z,14.69
2018-09-14T02:50:26.031Z,14.70
2018-09-14T02:51:26.777Z,14.70
2018-09-14T02:52:26.034Z,14.66
2018-09-14T02:53:25.944Z,14.66
2018-09-14T02:54:26.778Z,14.66
2018-09-14T02:55:25.890Z,14.71
2018-09-14T02:56:26.774Z,14.59
2018-09-14T02:57:25.889Z,14.74
2018-09-14T02:58:26.780Z,14.61
2018-09-14T02:59:25.781Z,14.53
2018-09-14T03:00:26.284Z,14.61
2018-09-14T03:01:25.731Z,14.56
2018-09-14T03:02:25.763Z,14.60
2018-09-14T03:03:25.682Z,14.59
2018-09-14T03:04:26.272Z,14.53
2018-09-14T03:05:26.271Z,14.60
2018-09-14T03:06:25.605Z,14.59
2018-09-14T03:07:25.612Z,14.57
2018-09-14T03:08:25.832Z,14.59
2018-09-14T03:09:25.529Z,14.49
2018-09-14T03:10:25.486Z,14.53
2018-09-14T03:11:25.466Z,14.48
2018-09-14T03:12:25.438Z,14.48
2018-09-14T03:13:25.840Z,14.48
2018-09-14T03:14:26.282Z,14.49
2018-09-14T03:15:25.357Z,14.48
2018-09-14T03:16:26.286Z,14.44
2018-09-14T03:17:26.275Z,14.48
2018-09-14T03:18:25.332Z,14.48
2018-09-14T03:19:25.355Z,14.49
2018-09-14T03:20:25.221Z,14.45
2018-09-14T03:21:25.193Z,14.49
2018-09-14T03:22:25.774Z,14.46
2018-09-14T03:23:25.139Z,14.49
2018-09-14T03:24:25.342Z,14.39
2018-09-14T03:25:25.798Z,14.48
2018-09-14T03:26:25.777Z,14.53
2018-09-14T03:27:25.032Z,14.49
2018-09-14T03:28:25.782Z,14.52
2018-09-14T03:29:25.346Z,14.59
2018-09-14T03:30:25.777Z,14.57
2018-09-14T03:31:25.781Z,14.64
2018-09-14T03:32:24.912Z,14.53
2018-09-14T03:33:25.779Z,14.56
2018-09-14T03:34:24.899Z,14.56
2018-09-14T03:35:26.685Z,14.56
2018-09-14T03:36:24.796Z,14.56
2018-09-14T03:37:24.785Z,14.59
2018-09-14T03:38:25.284Z,14.60
2018-09-14T03:39:24.879Z,14.56
2018-09-14T03:40:25.278Z,14.53
2018-09-14T03:41:24.656Z,14.52
2018-09-14T03:42:24.673Z,14.49
2018-09-14T03:43:24.619Z,14.49
2018-09-14T03:44:24.579Z,14.53
2018-09-14T03:45:24.552Z,14.49
2018-09-14T03:46:24.569Z,14.49
2018-09-14T03:47:24.500Z,14.44
2018-09-14T03:48:24.470Z,14.51
2018-09-14T03:49:25.281Z,14.39
2018-09-14T03:50:25.282Z,14.39
2018-09-14T03:51:24.838Z,14.39
2018-09-14T03:52:25.286Z,14.41
2018-09-14T03:53:25.284Z,14.45
2018-09-14T03:54:24.315Z,14.51
2018-09-14T03:55:24.787Z,14.57
2018-09-14T03:56:24.351Z,14.49
2018-09-14T03:57:24.266Z,14.60
2018-09-14T03:58:24.782Z,14.60
2018-09-14T03:59:26.786Z,14.60
2018-09-14T04:00:24.784Z,14.60
2018-09-14T04:01:24.358Z,14.57
2018-09-14T04:02:24.789Z,14.51
2018-09-14T04:03:24.791Z,14.44
2018-09-14T04:04:24.046Z,14.49
2018-09-14T04:05:24.017Z,14.51
2018-09-14T04:06:24.037Z,14.42
2018-09-14T04:07:24.784Z,14.45
2018-09-14T04:08:23.940Z,14.41
2018-09-14T04:09:24.339Z,14.53
2018-09-14T04:10:23.887Z,14.45
2018-09-14T04:11:24.787Z,14.48
2018-09-14T04:12:26.785Z,14.46
2018-09-14T04:13:24.785Z,14.48
2018-09-14T04:14:23.841Z,14.49
2018-09-14T04:15:23.758Z,14.51
2018-09-14T04:16:23.725Z,14.49
2018-09-14T04:17:23.740Z,14.49
2018-09-14T04:18:23.677Z,14.49
2018-09-14T04:19:23.690Z,14.53
2018-09-14T04:20:24.288Z,14.52
2018-09-14T04:21:23.595Z,14.53
2018-09-14T04:22:24.288Z,14.56
2018-09-14T04:23:23.559Z,14.59
2018-09-14T04:24:23.572Z,14.61
2018-09-14T04:25:23.489Z,14.56
2018-09-14T04:26:23.465Z,14.59
2018-09-14T04:27:23.433Z,14.61
2018-09-14T04:28:24.289Z,14.66
2018-09-14T04:29:23.853Z,14.60
2018-09-14T04:30:24.290Z,14.64
2018-09-14T04:31:23.329Z,14.66
2018-09-14T04:32:23.306Z,14.63
2018-09-14T04:33:23.793Z,14.67
2018-09-14T04:34:23.291Z,14.74
2018-09-14T04:35:23.222Z,14.67
2018-09-14T04:36:23.792Z,14.69
2018-09-14T04:37:23.172Z,14.74
2018-09-14T04:38:23.253Z,14.66
2018-09-14T04:39:23.120Z,14.67
2018-09-14T04:40:23.091Z,14.63
2018-09-14T04:41:23.060Z,14.71
2018-09-14T04:42:23.040Z,14.69
2018-09-14T04:43:23.064Z,14.74
2018-09-14T04:44:22.984Z,14.79
2018-09-14T04:45:23.000Z,14.63
2018-09-14T04:46:23.795Z,14.70
2018-09-14T04:47:23.797Z,14.64
2018-09-14T04:48:23.039Z,14.74
2018-09-14T04:49:23.349Z,14.74
2018-09-14T04:50:22.824Z,14.75
2018-09-14T04:51:22.918Z,14.70
2018-09-14T04:52:23.319Z,14.74
2018-09-14T04:53:22.746Z,14.69
2018-09-14T04:54:22.766Z,14.70
2018-09-14T04:55:23.301Z,14.70
2018-09-14T04:56:22.855Z,14.86
2018-09-14T04:57:22.751Z,14.70
2018-09-14T04:58:22.614Z,14.75
2018-09-14T04:59:23.297Z,14.71
2018-09-14T05:00:22.563Z,14.75
2018-09-14T05:01:22.532Z,14.71
2018-09-14T05:02:22.548Z,14.83
2018-09-14T05:03:22.548Z,14.71
2018-09-14T05:04:23.296Z,14.70
2018-09-14T05:05:22.429Z,14.75
2018-09-14T05:06:22.410Z,14.79
2018-09-14T05:07:22.860Z,14.71
2018-09-14T05:08:22.899Z,14.80
2018-09-14T05:09:23.415Z,14.63
2018-09-14T05:10:22.298Z,14.70
2018-09-14T05:11:22.272Z,14.67
2018-09-14T05:12:22.812Z,14.70
2018-09-14T05:13:22.352Z,14.64
2018-09-14T05:14:22.807Z,14.67
2018-09-14T05:15:22.163Z,14.74
2018-09-14T05:16:22.136Z,14.74
2018-09-14T05:17:22.796Z,14.70
2018-09-14T05:18:22.367Z,14.70
2018-09-14T05:19:22.058Z,14.86
2018-09-14T05:20:22.799Z,14.85
2018-09-14T05:21:22.804Z,14.85
2018-09-14T05:22:21.983Z,14.85
2018-09-14T05:23:22.358Z,14.94
2018-09-14T05:24:22.820Z,14.89
2018-09-14T05:25:22.800Z,14.95
2018-09-14T05:26:21.921Z,15.00
2018-09-14T05:27:21.864Z,14.97
2018-09-14T05:28:21.824Z,15.00
2018-09-14T05:29:21.792Z,15.07
2018-09-14T05:30:22.309Z,15.04
2018-09-14T05:31:21.862Z,15.05
2018-09-14T05:32:22.302Z,15.05
2018-09-14T05:33:22.304Z,15.19
2018-09-14T05:34:21.663Z,15.20
2018-09-14T05:35:22.305Z,15.20
2018-09-14T05:36:21.652Z,15.20
2018-09-14T05:37:22.305Z,15.31
2018-09-14T05:38:22.384Z,15.30
2018-09-14T05:39:22.305Z,15.40
2018-09-14T05:40:22.306Z,15.34
2018-09-14T05:41:21.530Z,15.31
2018-09-14T05:42:21.498Z,15.37
2018-09-14T05:43:22.308Z,15.49
2018-09-14T05:44:22.305Z,15.44
2018-09-14T05:45:22.309Z,15.44
2018-09-14T05:46:21.867Z,15.45
2018-09-14T05:47:22.308Z,15.53
2018-09-14T05:48:21.306Z,15.45
2018-09-14T05:49:21.284Z,15.55
2018-09-14T05:50:21.804Z,15.49
2018-09-14T05:51:21.265Z,15.47
2018-09-14T05:52:21.198Z,15.62
2018-09-14T05:53:21.806Z,15.52
2018-09-14T05:54:21.851Z,15.58
2018-09-14T05:55:21.120Z,15.59
2018-09-14T05:56:21.375Z,15.65
2018-09-14T05:57:21.067Z,15.67
2018-09-14T05:58:21.059Z,15.70
2018-09-14T05:59:21.061Z,15.74
2018-09-14T06:00:20.990Z,15.86
2018-09-14T06:01:20.966Z,15.81
2018-09-14T06:02:20.941Z,15.88
2018-09-14T06:03:20.966Z,15.84
2018-09-14T06:04:20.893Z,15.99
2018-09-14T06:05:21.811Z,15.95
2018-09-14T06:06:20.839Z,15.99
2018-09-14T06:07:20.812Z,15.96
2018-09-14T06:08:20.834Z,16.00
2018-09-14T06:09:20.772Z,16.13
2018-09-14T06:10:20.740Z,16.07
2018-09-14T06:11:20.715Z,16.22
2018-09-14T06:12:20.863Z,16.08
2018-09-14T06:13:20.661Z,16.07
2018-09-14T06:14:21.312Z,16.16
2018-09-14T06:15:20.626Z,16.22
2018-09-14T06:16:20.589Z,16.27
2018-09-14T06:17:20.609Z,16.33
2018-09-14T06:18:20.531Z,16.36
2018-09-14T06:19:20.527Z,16.39
2018-09-14T06:20:20.483Z,16.39
2018-09-14T06:21:20.466Z,16.39
2018-09-14T06:22:20.895Z,16.29
2018-09-14T06:23:20.407Z,16.29
2018-09-14T06:24:20.389Z,16.32
2018-09-14T06:25:20.355Z,16.33
2018-09-14T06:26:20.333Z,16.27
2018-09-14T06:27:20.352Z,16.32
2018-09-14T06:28:20.283Z,16.22
2018-09-14T06:29:20.291Z,16.26
2018-09-14T06:30:20.311Z,16.25
2018-09-14T06:31:20.206Z,16.25
2018-09-14T06:32:20.180Z,16.36
2018-09-14T06:33:20.159Z,16.22
2018-09-14T06:34:20.131Z,16.25
2018-09-14T06:35:20.147Z,16.39
2018-09-14T06:36:20.081Z,16.33
2018-09-14T06:37:20.055Z,16.36
2018-09-14T06:38:20.046Z,16.40
2018-09-14T06:39:20.006Z,16.45
2018-09-14T06:40:20.033Z,16.48
2018-09-14T06:41:19.977Z,16.55
2018-09-14T06:42:19.975Z,16.40
2018-09-14T06:43:19.905Z,16.44
2018-09-14T06:44:19.882Z,16.44
2018-09-14T06:45:19.913Z,16.45
2018-09-14T06:46:19.857Z,16.51
2018-09-14T06:47:19.806Z,16.58
2018-09-14T06:48:19.780Z,16.55
2018-09-14T06:49:20.323Z,16.54
2018-09-14T06:50:19.781Z,16.62
2018-09-14T06:51:20.324Z,16.66
2018-09-14T06:52:19.724Z,16.70
2018-09-14T06:53:19.911Z,16.65
2018-09-14T06:54:19.635Z,16.66
2018-09-14T06:55:19.607Z,16.63
2018-09-14T06:56:19.582Z,16.74
2018-09-14T06:57:19.602Z,16.77
2018-09-14T06:58:19.541Z,16.77
2018-09-14T06:59:19.508Z,16.81
2018-09-14T07:00:19.499Z,16.91
2018-09-14T07:01:19.459Z,16.99
2018-09-14T07:02:19.505Z,17.09
2018-09-14T07:03:19.441Z,17.05
2018-09-14T07:04:19.386Z,17.30
2018-09-14T07:05:19.455Z,17.13
2018-09-14T07:06:19.352Z,17.07
2018-09-14T07:07:19.372Z,17.10
2018-09-14T07:08:19.285Z,17.13
2018-09-14T07:09:19.258Z,17.22
2018-09-14T07:10:19.240Z,17.03
2018-09-14T07:11:19.213Z,17.02
2018-09-14T07:12:19.231Z,16.90
2018-09-14T07:13:19.230Z,17.07
2018-09-14T07:14:19.135Z,17.15
2018-09-14T07:15:19.111Z,17.02
2018-09-14T07:16:19.091Z,17.07
2018-09-14T07:17:19.392Z,17.25
2018-09-14T07:18:19.043Z,17.22
2018-09-14T07:19:19.013Z,17.27
2018-09-14T07:20:18.995Z,17.43
2018-09-14T07:21:18.971Z,17.38
2018-09-14T07:22:19.047Z,17.45
2018-09-14T07:23:18.915Z,17.47
2018-09-14T07:24:18.971Z,17.54
2018-09-14T07:25:18.868Z,17.55
2018-09-14T07:26:18.884Z,17.47
2018-09-14T07:27:18.888Z,17.52
2018-09-14T07:28:18.848Z,17.68
2018-09-14T07:29:18.787Z,17.76
2018-09-14T07:30:18.775Z,17.80
2018-09-14T07:31:18.755Z,17.81
2018-09-14T07:32:18.724Z,17.81
2018-09-14T07:33:18.751Z,17.87
2018-09-14T07:34:18.698Z,18.03
2018-09-14T07:35:18.633Z,18.03
2018-09-14T07:36:18.650Z,18.06
2018-09-14T07:37:18.580Z,18.06
2018-09-14T07:38:18.594Z,18.19
2018-09-14T07:39:18.571Z,18.29
2018-09-14T07:40:18.558Z,18.24
2018-09-14T07:41:18.483Z,18.21
2018-09-14T07:42:18.473Z,18.35
2018-09-14T07:43:18.438Z,18.45
2018-09-14T07:44:18.414Z,18.34
2018-09-14T07:45:18.445Z,18.29
2018-09-14T07:46:18.364Z,18.34
2018-09-14T07:47:18.351Z,18.31
2018-09-14T07:48:18.408Z,18.38
2018-09-14T07:49:18.351Z,18.35
2018-09-14T07:50:18.275Z,18.53
2018-09-14T07:51:18.249Z,18.49
2018-09-14T07:52:18.231Z,18.63
2018-09-14T07:53:18.202Z,18.50
2018-09-14T07:54:18.222Z,18.41
2018-09-14T07:55:18.204Z,18.36
2018-09-14T07:56:18.131Z,18.42
2018-09-14T07:57:18.110Z,18.56
2018-09-14T07:58:18.085Z,18.47
2018-09-14T07:59:18.115Z,18.59
2018-09-14T08:00:18.037Z,18.61
2018-09-14T08:01:18.889Z,18.69
2018-09-14T08:02:18.042Z,18.76
2018-09-14T08:03:18.014Z,18.82
2018-09-14T08:04:17.949Z,18.94
2018-09-14T08:05:17.922Z,19.00
2018-09-14T08:06:17.972Z,18.97
2018-09-14T08:07:17.877Z,18.97
2018-09-14T08:08:17.899Z,19.06
2018-09-14T08:09:17.874Z,19.05
2018-09-14T08:10:17.812Z,19.02
2018-09-14T08:11:17.785Z,19.10
2018-09-14T08:12:17.763Z,19.16
2018-09-14T08:13:17.794Z,19.13
2018-09-14T08:14:17.720Z,19.24
2018-09-14T08:15:17.697Z,19.27
2018-09-14T08:16:17.674Z,19.35
2018-09-14T08:17:17.649Z,19.53
2018-09-14T08:18:17.946Z,19.52
2018-09-14T08:19:17.608Z,19.63
2018-09-14T08:20:17.672Z,19.70
2018-09-14T08:21:17.658Z,19.68
2018-09-14T08:22:17.585Z,19.57
2018-09-14T08:23:17.516Z,19.57
2018-09-14T08:24:17.498Z,19.60
2018-09-14T08:25:17.475Z,19.53
2018-09-14T08:26:17.454Z,19.37
2018-09-14T08:27:17.543Z,19.32
2018-09-14T08:28:17.406Z,19.35
2018-09-14T08:29:17.419Z,19.34
2018-09-14T08:30:18.371Z,19.34
2018-09-14T08:31:17.348Z,19.50
2018-09-14T08:32:17.403Z,19.50
2018-09-14T08:33:17.344Z,19.56
2018-09-14T08:34:17.281Z,19.56
2018-09-14T08:35:17.254Z,19.72
2018-09-14T08:36:17.248Z,19.75
2018-09-14T08:37:17.213Z,19.86
2018-09-14T08:38:17.230Z,19.80
2018-09-14T08:39:17.161Z,19.85
2018-09-14T08:40:17.140Z,19.90
2018-09-14T08:41:17.120Z,20.02
2018-09-14T08:42:17.100Z,20.01
2018-09-14T08:43:17.121Z,20.04
2018-09-14T08:44:17.056Z,20.16
2018-09-14T08:45:17.031Z,20.23
2018-09-14T08:46:17.047Z,20.30
2018-09-14T08:47:16.989Z,20.30
2018-09-14T08:48:17.010Z,20.20
2018-09-14T08:49:16.953Z,20.25
2018-09-14T08:50:16.927Z,20.20
2018-09-14T08:51:16.906Z,20.19
2018-09-14T08:52:16.880Z,20.11
2018-09-14T08:53:16.919Z,20.23
2018-09-14T08:54:16.834Z,20.30
2018-09-14T08:55:16.818Z,20.34
2018-09-14T08:56:16.804Z,20.46
2018-09-14T08:57:16.772Z,20.25
2018-09-14T08:58:16.811Z,20.00
2018-09-14T08:59:16.728Z,19.97
2018-09-14T09:00:16.707Z,20.04
2018-09-14T09:01:16.687Z,20.08
2018-09-14T09:02:16.664Z,20.12
2018-09-14T09:03:16.686Z,20.22
2018-09-14T09:04:16.668Z,20.25
2018-09-14T09:05:16.644Z,20.29
2018-09-14T09:06:16.649Z,20.35
2018-09-14T09:07:16.625Z,20.37
2018-09-14T09:08:16.538Z,20.19
2018-09-14T09:09:16.619Z,20.19
2018-09-14T09:10:16.553Z,20.27
2018-09-14T09:11:16.532Z,20.26
2018-09-14T09:12:16.481Z,20.23
2018-09-14T09:13:16.426Z,20.16
2018-09-14T09:14:16.408Z,20.23
2018-09-14T09:15:16.429Z,20.26
2018-09-14T09:16:16.431Z,20.41
2018-09-14T09:17:16.345Z,20.44
2018-09-14T09:18:16.321Z,20.60
2018-09-14T09:19:16.361Z,20.85
2018-09-14T09:20:16.279Z,20.94
2018-09-14T09:21:16.388Z,21.00
2018-09-14T09:22:16.271Z,20.94
2018-09-14T09:23:16.246Z,20.96
2018-09-14T09:24:16.218Z,20.97
2018-09-14T09:25:16.235Z,21.04
2018-09-14T09:26:16.221Z,21.08
2018-09-14T09:27:16.143Z,21.19
2018-09-14T09:28:16.130Z,21.30
2018-09-14T09:29:16.134Z,21.31
2018-09-14T09:30:16.118Z,21.33
2018-09-14T09:31:16.090Z,21.45
2018-09-14T09:32:16.038Z,21.48
2018-09-14T09:33:16.022Z,21.48
2018-09-14T09:34:16.064Z,21.52
2018-09-14T09:35:15.969Z,21.61
2018-09-14T09:36:15.993Z,21.62
2018-09-14T09:37:15.926Z,21.66
2018-09-14T09:38:15.900Z,21.61
2018-09-14T09:39:15.880Z,21.70
2018-09-14T09:40:15.861Z,21.64
2018-09-14T09:41:15.896Z,21.67
2018-09-14T09:42:15.826Z,21.71
2018-09-14T09:43:15.903Z,21.83
2018-09-14T09:44:15.785Z,21.62
2018-09-14T09:45:15.760Z,21.53
2018-09-14T09:46:15.781Z,21.48
2018-09-14T09:47:15.717Z,21.19
2018-09-14T09:48:15.741Z,21.21
2018-09-14T09:49:15.676Z,21.33
2018-09-14T09:50:15.660Z,21.28
2018-09-14T09:51:15.675Z,21.16
2018-09-14T09:52:15.673Z,21.23
2018-09-14T09:53:15.590Z,21.03
2018-09-14T09:54:15.578Z,20.93
2018-09-14T09:55:15.547Z,20.85
2018-09-14T09:56:15.538Z,20.90
2018-09-14T09:57:15.919Z,20.98
2018-09-14T09:58:15.485Z,21.09
2018-09-14T09:59:15.518Z,21.13
2018-09-14T10:00:15.442Z,21.21
2018-09-14T10:01:15.427Z,21.22
2018-09-14T10:02:15.402Z,21.30
2018-09-14T10:03:15.385Z,21.33
2018-09-14T10:04:15.417Z,21.33
2018-09-14T10:05:15.878Z,21.49
2018-09-14T10:06:15.319Z,21.45
2018-09-14T10:07:15.313Z,21.66
2018-09-14T10:08:15.280Z,21.64
2018-09-14T10:09:15.318Z,21.82
2018-09-14T10:10:15.238Z,21.89
2018-09-14T10:11:15.219Z,22.00
2018-09-14T10:12:15.200Z,22.12
2018-09-14T10:13:15.179Z,22.14
2018-09-14T10:14:15.294Z,22.26
2018-09-14T10:15:15.151Z,22.38
2018-09-14T10:16:15.117Z,22.41
2018-09-14T10:17:15.096Z,22.36
2018-09-14T10:18:15.133Z,22.45
2018-09-14T10:19:15.060Z,22.49
2018-09-14T10:20:15.082Z,22.57
2018-09-14T10:21:15.090Z,22.63
2018-09-14T10:22:14.994Z,22.66
2018-09-14T10:23:14.975Z,22.76
2018-09-14T10:24:14.952Z,22.73
2018-09-14T10:25:14.982Z,22.79
2018-09-14T10:26:14.914Z,22.71
2018-09-14T10:27:14.909Z,22.73
2018-09-14T10:28:14.882Z,22.85
2018-09-14T10:29:14.859Z,22.82
2018-09-14T10:30:14.883Z,22.79
2018-09-14T10:31:14.821Z,22.84
2018-09-14T10:32:14.795Z,22.76
2018-09-14T10:33:14.781Z,22.84
2018-09-14T10:34:14.757Z,22.97
2018-09-14T10:35:14.880Z,22.91
2018-09-14T10:36:14.719Z,22.97
2018-09-14T10:37:14.696Z,22.92
2018-09-14T10:38:14.960Z,22.78
2018-09-14T10:39:14.700Z,22.57
2018-09-14T10:40:15.386Z,22.39
2018-09-14T10:41:14.618Z,22.44
2018-09-14T10:42:14.602Z,22.48
2018-09-14T10:43:14.620Z,22.54
2018-09-14T10:44:14.558Z,22.57
2018-09-14T10:45:14.595Z,22.63
2018-09-14T10:46:14.578Z,22.67
2018-09-14T10:47:14.501Z,22.63
2018-09-14T10:48:14.485Z,22.66
2018-09-14T10:49:14.462Z,22.76
2018-09-14T10:50:14.443Z,22.75
2018-09-14T10:51:14.944Z,22.82
2018-09-14T10:52:14.403Z,22.88
2018-09-14T10:53:14.424Z,22.96
2018-09-14T10:54:14.366Z,22.96
2018-09-14T10:55:14.375Z,22.89
2018-09-14T10:56:14.324Z,22.91
2018-09-14T10:57:14.363Z,22.94
2018-09-14T10:58:14.289Z,22.99
2018-09-14T10:59:14.262Z,22.86
2018-09-14T11:00:14.257Z,22.96
2018-09-14T11:01:14.226Z,22.92
2018-09-14T11:02:14.250Z,23.04
2018-09-14T11:03:14.233Z,22.88
2018-09-14T11:04:14.182Z,22.75
2018-09-14T11:05:14.145Z,22.82
2018-09-14T11:06:14.129Z,22.82
2018-09-14T11:07:14.153Z,22.86
2018-09-14T11:08:14.135Z,22.85
2018-09-14T11:09:14.069Z,22.86
2018-09-14T11:10:14.054Z,22.81
2018-09-14T11:11:14.028Z,22.85
2018-09-14T11:12:14.446Z,22.96
2018-09-14T11:13:14.036Z,23.00
2018-09-14T11:14:14.893Z,23.06
2018-09-14T11:15:13.951Z,22.99
2018-09-14T11:16:14.933Z,23.04
2018-09-14T11:17:13.912Z,23.06
2018-09-14T11:18:13.938Z,23.19
2018-09-14T11:19:13.872Z,23.14
2018-09-14T11:20:14.405Z,23.21
2018-09-14T11:21:13.833Z,23.16
2018-09-14T11:22:13.818Z,23.18
2018-09-14T11:23:13.848Z,23.22
2018-09-14T11:24:13.777Z,23.28
2018-09-14T11:25:13.880Z,23.25
2018-09-14T11:26:13.739Z,23.28
2018-09-14T11:27:14.394Z,23.28
2018-09-14T11:28:13.957Z,23.44
2018-09-14T11:29:13.679Z,23.48
2018-09-14T11:30:13.659Z,23.62
2018-09-14T11:31:13.636Z,23.60
2018-09-14T11:32:14.401Z,23.55
2018-09-14T11:33:13.648Z,23.62
2018-09-14T11:34:14.431Z,23.56
2018-09-14T11:35:13.614Z,23.38
2018-09-14T11:36:13.545Z,23.19
2018-09-14T11:37:13.525Z,23.18
2018-09-14T11:38:13.566Z,23.18
2018-09-14T11:39:13.482Z,23.18
2018-09-14T11:40:13.509Z,23.19
2018-09-14T11:41:13.447Z,23.24
2018-09-14T11:42:13.430Z,23.41
2018-09-14T11:43:13.405Z,23.21
2018-09-14T11:44:13.387Z,23.26
2018-09-14T11:45:13.474Z,23.29
2018-09-14T11:46:13.399Z,23.29
2018-09-14T11:47:13.330Z,23.34
2018-09-14T11:48:13.308Z,23.28
2018-09-14T11:49:13.298Z,23.41
2018-09-14T11:50:13.310Z,23.25
2018-09-14T11:51:13.902Z,23.42
2018-09-14T11:52:13.268Z,23.42
2018-09-14T11:53:13.220Z,23.41
2018-09-14T11:54:13.223Z,23.64
2018-09-14T11:55:13.188Z,23.64
2018-09-14T11:56:13.158Z,23.78
2018-09-14T11:57:13.170Z,23.77
2018-09-14T11:58:13.202Z,23.78
2018-09-14T11:59:13.099Z,23.90
2018-09-14T12:00:13.907Z,23.84
2018-09-14T12:01:13.117Z,23.90
2018-09-14T12:02:13.039Z,23.94
2018-09-14T12:03:13.077Z,23.85
2018-09-14T12:04:13.026Z,24.02
2018-09-14T12:05:12.982Z,24.00
2018-09-14T12:06:12.961Z,24.07
2018-09-14T12:07:12.944Z,24.21
2018-09-14T12:08:12.981Z,24.30
2018-09-14T12:09:12.906Z,24.32
2018-09-14T12:10:12.887Z,24.40
2018-09-14T12:11:12.874Z,24.51
2018-09-14T12:12:12.849Z,24.49
2018-09-14T12:13:12.889Z,24.54
2018-09-14T12:14:12.809Z,24.52
2018-09-14T12:15:12.801Z,24.61
2018-09-14T12:16:12.772Z,24.66
2018-09-14T12:17:12.761Z,24.77
2018-09-14T12:18:12.786Z,24.67
2018-09-14T12:19:12.715Z,24.74
2018-09-14T12:20:12.708Z,24.49
2018-09-14T12:21:12.682Z,24.59
2018-09-14T12:22:12.783Z,24.61
2018-09-14T12:23:12.643Z,24.39
2018-09-14T12:24:13.414Z,24.36
2018-09-14T12:25:12.660Z,24.14
2018-09-14T12:26:12.583Z,23.90
2018-09-14T12:27:12.566Z,23.92
2018-09-14T12:28:12.579Z,23.93
2018-09-14T12:29:12.528Z,23.63
2018-09-14T12:30:12.555Z,23.60
2018-09-14T12:31:12.494Z,23.62
2018-09-14T12:32:12.467Z,23.40
2018-09-14T12:33:12.498Z,23.25
2018-09-14T12:34:12.611Z,23.22
2018-09-14T12:35:12.415Z,23.18
2018-09-14T12:36:12.450Z,23.22
2018-09-14T12:37:12.931Z,23.22
2018-09-14T12:38:12.362Z,23.16
2018-09-14T12:39:12.336Z,23.16
2018-09-14T12:40:12.329Z,23.01
2018-09-14T12:41:12.349Z,23.09
2018-09-14T12:42:12.280Z,23.25
2018-09-14T12:43:12.319Z,23.25
2018-09-14T12:44:12.253Z,23.37
2018-09-14T12:45:12.946Z,23.48
2018-09-14T12:46:12.317Z,23.50
2018-09-14T12:47:12.179Z,23.48
2018-09-14T12:48:12.158Z,23.52
2018-09-14T12:49:12.147Z,23.47
2018-09-14T12:50:12.167Z,23.63
2018-09-14T12:51:12.106Z,23.55
2018-09-14T12:52:12.126Z,23.71